Time;durP1;ratioP1;P1;durP2;ratioP2;P2;SDS_P1;SDS_P2;PMS_P1;PMS_P2;Temp;Humidity;BMP_temperature;BMP_pressure;BME280_temperature;BME280_humidity;BME280_pressure;Samples;Min_cycle;Max_cycle;Signal;HPM_P1;HPM_P2
2023/07/02 00:03:02;;;;;;;6.18;2.70;;;;;;;18.43;100.00;99826.06;8295924;28;20065;-59
2023/07/02 00:07:04;;;;;;;10.57;3.60;;;;;;;18.39;99.22;99822.03;8303217;28;20491;-59
2023/07/02 00:11:05;;;;;;;6.32;2.97;;;;;;;18.29;99.45;99815.25;8302675;28;20033;-59
2023/07/02 00:15:05;;;;;;;6.50;3.55;;;;;;;18.27;99.64;99823.66;8302269;28;20034;-59
2023/07/02 00:19:06;;;;;;;7.68;3.45;;;;;;;18.18;98.97;99824.94;8301728;28;20354;-59
2023/07/02 00:23:08;;;;;;;7.10;2.95;;;;;;;18.18;99.47;99818.59;8304441;28;20034;-60
2023/07/02 00:27:09;;;;;;;7.28;3.35;;;;;;;18.12;99.13;99820.28;8302150;28;20025;-59
2023/07/02 00:31:09;;;;;;;8.85;4.05;;;;;;;18.03;97.82;99824.25;8299718;28;20045;-59
2023/07/02 00:35:10;;;;;;;10.50;4.15;;;;;;;18.02;96.90;99819.81;8303048;28;20069;-59
2023/07/02 00:39:13;;;;;;;10.07;3.88;;;;;;;18.00;96.40;99826.53;8306815;28;20048;-59
2023/07/02 00:43:14;;;;;;;13.37;4.70;;;;;;;17.96;96.30;99826.09;8323942;28;20038;-59
2023/07/02 00:47:16;;;;;;;11.05;4.68;;;;;;;17.92;95.69;99824.84;8304953;28;20034;-59
2023/07/02 00:51:20;;;;;;;9.82;5.00;;;;;;;17.83;95.00;99815.13;8305112;28;20048;-59
2023/07/02 00:55:20;;;;;;;;;;;;;;;17.82;95.81;99815.31;8305104;28;20042;-59
2023/07/02 00:59:22;;;;;;;15.50;5.70;;;;;;;17.80;94.72;99810.06;8306930;28;20016;-59
2023/07/02 01:03:22;;;;;;;17.02;6.15;;;;;;;17.68;95.59;99811.69;8304191;28;20042;-59
2023/07/02 01:07:23;;;;;;;16.58;6.97;;;;;;;17.66;94.94;99813.78;8327999;28;20080;-59
2023/07/02 01:11:50;;;;;;;15.80;6.68;;;;;;;17.69;95.75;99818.00;8308302;28;20045;-59
2023/07/02 01:15:51;;;;;;;13.45;6.82;;;;;;;17.61;95.84;99813.53;8309869;28;20064;-59
2023/07/02 01:19:58;;;;;;;15.27;7.10;;;;;;;17.59;96.60;99818.34;8309949;28;20042;-59
2023/07/02 01:24:00;;;;;;;18.98;7.75;;;;;;;17.48;98.20;99821.69;8302703;28;20121;-59
2023/07/02 01:28:02;;;;;;;19.58;7.63;;;;;;;17.35;98.54;99816.94;8310075;28;20037;-59
2023/07/02 01:32:03;;;;;;;23.17;8.32;;;;;;;17.42;97.76;99825.19;8305108;28;20060;-59
2023/07/02 01:36:04;;;;;;;19.05;7.80;;;;;;;17.50;95.42;99814.97;8308825;28;20033;-59
2023/07/02 01:40:06;;;;;;;18.50;9.57;;;;;;;17.52;95.27;99812.03;8310409;28;20044;-59
2023/07/02 01:44:06;;;;;;;16.60;8.00;;;;;;;17.50;95.44;99814.09;8308546;28;20129;-59
2023/07/02 01:48:07;;;;;;;18.83;9.35;;;;;;;17.50;95.39;99830.50;8322492;28;20034;-60
2023/07/02 01:52:07;;;;;;;19.55;8.40;;;;;;;17.33;95.90;99819.00;8310978;28;20045;-60
2023/07/02 01:56:08;;;;;;;24.23;9.98;;;;;;;17.34;94.00;99817.13;8309513;28;20056;-58
2023/07/02 02:00:09;;;;;;;18.55;8.73;;;;;;;17.49;94.25;99823.38;8306597;28;20038;-58
2023/07/02 02:04:19;;;;;;;24.73;9.55;;;;;;;17.36;94.49;99828.72;8310538;28;20030;-58
2023/07/02 02:08:19;;;;;;;22.40;9.65;;;;;;;17.48;93.88;99822.50;8308697;28;20033;-58
2023/07/02 02:12:20;;;;;;;27.15;10.35;;;;;;;17.43;94.86;99830.50;8308456;28;20038;-58
2023/07/02 02:16:21;;;;;;;22.65;10.18;;;;;;;17.38;94.50;99826.63;8310397;28;20044;-58
2023/07/02 02:20:22;;;;;;;23.48;10.32;;;;;;;17.35;95.08;99843.41;8305442;28;20034;-58
2023/07/02 02:24:23;;;;;;;27.85;10.55;;;;;;;17.37;94.33;99830.41;8310511;28;20561;-58
2023/07/02 02:28:24;;;;;;;27.05;11.13;;;;;;;17.50;94.67;99833.25;8307387;28;20753;-58
2023/07/02 02:32:25;;;;;;;28.58;10.75;;;;;;;17.38;95.70;99843.00;8301944;28;20079;-58
2023/07/02 02:36:25;;;;;;;22.35;10.77;;;;;;;17.39;95.12;99844.72;8308609;28;20112;-58
2023/07/02 02:40:26;;;;;;;24.70;11.15;;;;;;;17.29;94.62;99844.22;8308155;28;20045;-58
2023/07/02 02:44:27;;;;;;;34.20;12.30;;;;;;;17.25;96.55;99842.94;8307267;28;20060;-59
2023/07/02 02:48:27;;;;;;;29.95;11.02;;;;;;;17.28;96.08;99839.81;8309818;28;20041;-58
2023/07/02 02:52:28;;;;;;;27.98;11.40;;;;;;;17.28;94.19;99843.38;8306578;28;20056;-59
2023/07/02 02:56:28;;;;;;;27.45;11.85;;;;;;;17.26;95.02;99850.94;8306515;28;20042;-58
2023/07/02 03:00:29;;;;;;;27.83;12.52;;;;;;;17.22;94.79;99849.66;8301611;28;21051;-58
2023/07/02 03:04:30;;;;;;;28.38;12.48;;;;;;;17.16;94.58;99849.59;8306231;28;20049;-58
2023/07/02 03:08:31;;;;;;;34.78;12.70;;;;;;;17.08;95.21;99847.03;8306668;28;20046;-58
2023/07/02 03:12:32;;;;;;;34.88;13.10;;;;;;;16.99;95.54;99853.66;8308321;28;20075;-59
2023/07/02 03:16:33;;;;;;;32.72;13.52;;;;;;;16.93;95.95;99854.47;8305347;28;20475;-58
2023/07/02 03:20:33;;;;;;;31.35;13.48;;;;;;;16.96;95.64;99859.53;8308044;28;20037;-58
2023/07/02 03:24:34;;;;;;;37.53;13.88;;;;;;;17.01;96.13;99855.16;8304984;28;20034;-58
2023/07/02 03:28:34;;;;;;;35.13;14.70;;;;;;;17.05;95.38;99858.34;8307443;28;20065;-58
2023/07/02 03:32:35;;;;;;;36.08;14.43;;;;;;;17.09;94.98;99848.69;8301572;28;20037;-58
2023/07/02 03:36:36;;;;;;;37.50;13.98;;;;;;;17.14;94.74;99859.88;8307263;28;20152;-58
2023/07/02 03:40:37;;;;;;;32.15;14.13;;;;;;;17.14;94.76;99848.97;8305957;28;20044;-58
2023/07/02 03:44:37;;;;;;;34.80;13.88;;;;;;;17.19;94.65;99860.97;8308510;28;20033;-58
2023/07/02 03:48:38;;;;;;;37.20;15.10;;;;;;;17.27;94.69;99857.25;8304743;28;20042;-58
2023/07/02 03:52:38;;;;;;;30.95;14.30;;;;;;;17.28;94.69;99861.66;8307775;28;20502;-58
2023/07/02 03:56:39;;;;;;;33.00;14.88;;;;;;;17.34;93.84;99869.91;8305380;28;20048;-58
2023/07/02 04:00:40;;;;;;;39.50;15.32;;;;;;;17.36;94.29;99870.53;8303005;28;20052;-58
2023/07/02 04:04:40;;;;;;;38.35;15.23;;;;;;;17.38;94.43;99881.25;8305858;28;20447;-59
2023/07/02 04:08:41;;;;;;;33.17;15.18;;;;;;;17.43;94.56;99887.03;8306735;28;20045;-58
2023/07/02 04:12:41;;;;;;;38.50;15.90;;;;;;;17.45;94.17;99896.69;8303545;28;20038;-58
2023/07/02 04:16:44;;;;;;;38.05;16.63;;;;;;;17.51;93.72;99903.28;8306815;28;20049;-58
2023/07/02 04:20:45;;;;;;;41.47;16.58;;;;;;;17.53;93.28;99907.50;8304330;28;20042;-58
2023/07/02 04:24:48;;;;;;;36.10;16.73;;;;;;;17.61;93.09;99917.44;8306793;28;20058;-58
2023/07/02 04:28:49;;;;;;;44.40;16.20;;;;;;;17.65;93.24;99915.16;8305341;28;20026;-58
2023/07/02 04:32:49;;;;;;;43.45;17.38;;;;;;;17.67;92.67;99913.03;8301224;28;20128;-58
2023/07/02 04:36:50;;;;;;;40.13;16.98;;;;;;;17.60;93.17;99919.31;8304696;28;20152;-58
2023/07/02 04:40:51;;;;;;;42.30;17.63;;;;;;;17.60;93.53;99913.00;8306257;28;20038;-58
2023/07/02 04:44:53;;;;;;;43.03;18.67;;;;;;;17.59;93.91;99919.50;8304499;28;20141;-58
2023/07/02 04:48:54;;;;;;;48.08;17.92;;;;;;;17.58;94.52;99926.88;8306734;28;20034;-58
2023/07/02 04:52:55;;;;;;;41.97;17.75;;;;;;;17.60;94.30;99923.94;8304152;28;20415;-58
2023/07/02 04:56:55;;;;;;;46.38;19.00;;;;;;;17.60;94.88;99929.41;8306129;28;20038;-59
2023/07/02 05:00:56;;;;;;;45.33;18.77;;;;;;;17.58;94.87;99942.44;8295876;28;20041;-58
2023/07/02 05:04:56;;;;;;;49.28;19.70;;;;;;;17.67;95.33;99938.50;8304404;28;20495;-58
2023/07/02 05:08:57;;;;;;;46.50;18.73;;;;;;;17.82;95.60;99944.69;8304844;28;20250;-59
2023/07/02 05:12:57;;;;;;;40.33;18.40;;;;;;;17.97;93.48;99939.94;8302199;28;20034;-59
2023/07/02 05:16:58;;;;;;;44.35;18.88;;;;;;;18.03;93.36;99946.50;8305735;28;20049;-59
2023/07/02 05:20:58;;;;;;;47.20;19.35;;;;;;;18.08;93.98;99955.78;8303783;28;20033;-59
2023/07/02 05:24:59;;;;;;;47.97;19.08;;;;;;;18.18;92.78;99956.28;8305723;28;20046;-59
2023/07/02 05:29:00;;;;;;;46.20;19.33;;;;;;;18.35;92.61;99959.47;8304431;28;20077;-59
2023/07/02 05:33:00;;;;;;;46.83;19.15;;;;;;;18.51;91.13;99965.47;8299675;28;20037;-59
2023/07/02 05:37:00;;;;;;;45.75;18.98;;;;;;;18.74;90.39;99966.00;8303285;28;20125;-58
2023/07/02 05:41:03;;;;;;;47.67;20.13;;;;;;;18.82;89.63;99956.75;8304280;28;20044;-59
2023/07/02 05:45:04;;;;;;;45.92;19.40;;;;;;;18.89;89.55;99961.19;8304512;28;20034;-59
2023/07/02 05:49:05;;;;;;;44.20;19.98;;;;;;;19.23;89.38;99980.22;8311115;28;20065;-59
2023/07/02 05:53:06;;;;;;;50.08;20.00;;;;;;;19.43;86.66;99981.09;8308654;28;20298;-59
2023/07/02 05:57:06;;;;;;;41.30;19.77;;;;;;;19.67;85.49;99973.28;8309744;28;20034;-59
2023/07/02 06:01:07;;;;;;;52.28;19.60;;;;;;;20.24;84.29;99989.88;8289755;28;20042;-58
2023/07/02 06:05:08;;;;;;;48.08;19.38;;;;;;;20.36;82.21;99989.00;8291966;28;20178;-59
2023/07/02 06:09:09;;;;;;;45.15;19.50;;;;;;;20.30;82.15;99991.75;8288479;28;20083;-59
2023/07/02 06:13:10;;;;;;;55.72;20.80;;;;;;;20.60;81.92;99998.41;8277878;28;20046;-59
2023/07/02 06:17:11;;;;;;;43.47;20.20;;;;;;;20.63;80.75;100000.72;8302958;28;20049;-59
2023/07/02 06:21:11;;;;;;;44.58;19.95;;;;;;;20.56;81.42;100006.25;8310004;28;20053;-58
2023/07/02 06:25:11;;;;;;;47.20;19.30;;;;;;;20.96;80.60;100002.31;8307458;28;20462;-59
2023/07/02 06:29:12;;;;;;;43.22;19.88;;;;;;;20.97;78.67;100003.97;8307735;28;20076;-59
2023/07/02 06:33:12;;;;;;;48.17;21.17;;;;;;;20.68;81.10;100009.19;8303878;28;20132;-59
2023/07/02 06:37:13;;;;;;;43.38;20.02;;;;;;;20.91;79.12;100015.81;8308370;28;20491;-59
2023/07/02 06:41:14;;;;;;;43.33;19.35;;;;;;;21.46;77.05;100014.22;8305975;28;20049;-58
2023/07/02 06:45:15;;;;;;;46.33;20.02;;;;;;;20.90;78.65;100024.28;8303751;28;20038;-58
2023/07/02 06:49:15;;;;;;;40.17;18.67;;;;;;;20.76;79.83;100033.63;8308271;28;20069;-59
2023/07/02 06:53:16;;;;;;;46.38;19.02;;;;;;;20.83;77.96;100034.47;8307688;28;20056;-59
2023/07/02 06:57:16;;;;;;;42.50;18.70;;;;;;;20.71;78.56;100036.22;8307909;28;20046;-59
2023/07/02 07:01:17;;;;;;;44.00;18.52;;;;;;;20.75;77.27;100029.22;8302865;28;20050;-59
2023/07/02 07:05:17;;;;;;;45.08;18.45;;;;;;;20.69;76.23;100033.69;8308752;28;20047;-58
2023/07/02 07:09:17;;;;;;;44.00;18.08;;;;;;;20.90;74.78;100040.78;8308609;28;20041;-58
2023/07/02 07:13:18;;;;;;;42.58;18.10;;;;;;;20.75;75.75;100046.56;8292570;28;20072;-58
2023/07/02 07:17:18;;;;;;;42.70;17.05;;;;;;;21.44;74.07;100041.13;8300587;28;20045;-58
2023/07/02 07:21:19;;;;;;;41.42;16.98;;;;;;;22.19;72.92;100043.69;8305530;28;20040;-58
2023/07/02 07:25:19;;;;;;;40.65;16.45;;;;;;;22.17;71.22;100043.06;8304089;28;20048;-58
2023/07/02 07:29:20;;;;;;;42.65;16.50;;;;;;;22.31;71.46;100050.13;8306396;28;20079;-58
2023/07/02 07:33:20;;;;;;;40.85;17.00;;;;;;;22.84;68.76;100054.00;8299510;28;20133;-58
2023/07/02 07:37:21;;;;;;;35.22;15.40;;;;;;;22.74;67.54;100048.19;8306974;28;20412;-58
2023/07/02 07:41:21;;;;;;;39.60;17.10;;;;;;;22.58;66.97;100048.81;8304106;28;20442;-60
2023/07/02 07:45:21;;;;;;;35.97;15.48;;;;;;;22.21;67.82;100058.09;8304341;28;20565;-59
2023/07/02 07:49:22;;;;;;;35.08;15.98;;;;;;;22.09;67.99;100054.38;8303328;28;20116;-60
2023/07/02 07:53:22;;;;;;;41.17;17.33;;;;;;;22.64;69.75;100058.06;8305381;28;20083;-59
2023/07/02 07:57:23;;;;;;;39.45;17.00;;;;;;;23.16;67.43;100058.25;8305557;28;20029;-58
2023/07/02 08:01:26;;;;;;;41.27;18.67;;;;;;;22.80;67.78;100063.81;8302354;28;20045;-57
2023/07/02 08:05:27;;;;;;;41.05;18.98;;;;;;;22.01;67.98;100057.41;8298879;28;20867;-58
2023/07/02 08:09:27;;;;;;;44.58;18.35;;;;;;;21.89;71.57;100058.41;8302953;28;20071;-59
2023/07/02 08:13:28;;;;;;;40.65;17.70;;;;;;;21.50;71.91;100064.97;8302895;28;20049;-60
2023/07/02 08:17:30;;;;;;;38.78;16.20;;;;;;;21.10;70.91;100063.53;8298770;28;20054;-60
2023/07/02 08:21:31;;;;;;;39.42;15.43;;;;;;;21.08;70.24;100082.16;8296397;28;20147;-61
2023/07/02 08:25:31;;;;;;;34.60;15.43;;;;;;;21.16;69.34;100095.66;8303911;28;20042;-60
2023/07/02 08:29:32;;;;;;;34.42;14.23;;;;;;;21.11;69.15;100088.06;8303982;28;20041;-61
2023/07/02 08:33:32;;;;;;;41.75;17.02;;;;;;;21.78;72.12;100083.88;8301513;28;20045;-59
2023/07/02 08:37:33;;;;;;;41.00;17.90;;;;;;;22.41;69.09;100094.53;8301017;28;20403;-58
2023/07/02 08:41:44;;;;;;;43.03;17.27;;;;;;;22.49;68.05;100090.63;8298214;28;20129;-58
2023/07/02 08:45:45;;;;;;;38.70;17.63;;;;;;;22.94;67.82;100092.91;8299123;28;20342;-58
2023/07/02 08:49:48;;;;;;;37.90;15.80;;;;;;;23.03;65.46;100097.03;8302436;28;20049;-58
2023/07/02 08:53:48;;;;;;;44.50;19.77;;;;;;;23.47;64.71;100092.22;8300455;28;20076;-58
2023/07/02 08:57:52;;;;;;;39.38;16.52;;;;;;;23.43;64.11;100091.03;8303040;28;20085;-58
2023/07/02 09:01:53;;;;;;;34.27;15.03;;;;;;;22.95;65.44;100094.59;8300290;28;20045;-58
2023/07/02 09:05:53;;;;;;;37.13;15.93;;;;;;;22.57;64.81;100102.22;8303514;28;20121;-59
2023/07/02 09:09:54;;;;;;;36.28;15.73;;;;;;;22.08;67.31;100101.44;8304860;28;20048;-58
2023/07/02 09:14:00;;;;;;;38.67;17.27;;;;;;;21.49;70.00;100117.47;8295500;28;20478;-58
2023/07/02 09:18:00;;;;;;;36.53;15.88;;;;;;;21.34;69.06;100109.53;8303155;28;20544;-58
2023/07/02 09:22:02;;;;;;;36.47;16.45;;;;;;;21.93;70.85;100110.03;8306217;28;20064;-58
2023/07/02 09:26:03;;;;;;;40.20;17.50;;;;;;;23.17;70.07;100108.72;8299623;28;20038;-59
2023/07/02 09:30:08;;;;;;;45.10;17.25;;;;;;;24.06;66.74;100106.00;8304324;28;20137;-59
2023/07/02 09:34:09;;;;;;;38.88;16.63;;;;;;;24.27;63.08;100105.41;8305851;28;20436;-58
2023/07/02 09:38:12;;;;;;;39.10;17.10;;;;;;;24.04;62.88;100099.88;8306318;28;20129;-58
2023/07/02 09:42:13;;;;;;;42.95;18.08;;;;;;;23.53;62.80;100096.81;8303113;28;20072;-59
2023/07/02 09:46:14;;;;;;;38.72;15.30;;;;;;;23.70;62.54;100098.69;8302694;28;20037;-59
2023/07/02 09:50:17;;;;;;;31.15;14.68;;;;;;;23.80;62.75;100092.56;8304959;28;20742;-59
2023/07/02 09:54:20;;;;;;;35.42;15.32;;;;;;;24.41;64.17;100101.34;8308147;28;20049;-59
2023/07/02 09:58:21;;;;;;;39.05;15.48;;;;;;;24.60;61.29;100100.13;8304512;28;20042;-59
2023/07/02 10:02:21;;;;;;;36.72;15.20;;;;;;;25.05;60.50;100103.94;8305732;28;20395;-59
2023/07/02 10:06:22;;;;;;;29.50;13.20;;;;;;;26.10;55.59;100103.28;8301952;28;20120;-59
2023/07/02 10:10:28;;;;;;;34.10;13.88;;;;;;;26.93;53.86;100108.75;8304612;28;20034;-59
2023/07/02 10:14:41;;;;;;;31.77;12.90;;;;;;;27.98;51.43;100112.81;8296017;28;20049;-59
2023/07/02 10:18:41;;;;;;;39.47;13.63;;;;;;;27.89;52.05;100108.00;8301025;28;20520;-59
2023/07/02 10:22:44;;;;;;;32.33;14.13;;;;;;;26.54;55.33;100105.13;8306874;28;20041;-59
2023/07/02 10:26:55;;;;;;;29.13;13.60;;;;;;;25.46;56.72;100112.00;8298742;28;20034;-59
2023/07/02 10:30:56;;;;;;;27.58;13.70;;;;;;;24.01;59.66;100115.00;8296776;28;20037;-59
2023/07/02 10:34:58;;;;;;;31.17;13.73;;;;;;;23.09;61.84;100112.66;8259770;28;20050;-59
2023/07/02 10:39:04;;;;;;;30.92;14.68;;;;;;;22.46;64.16;100108.47;8288482;28;20099;-59
2023/07/02 10:43:04;;;;;;;34.25;14.43;;;;;;;22.54;65.96;100119.22;8292007;28;20045;-59
2023/07/02 10:47:05;;;;;;;24.50;12.93;;;;;;;22.68;64.30;100114.41;8295256;28;20044;-58
2023/07/02 10:51:13;;;;;;;33.15;14.32;;;;;;;22.19;64.53;100117.19;8288049;28;20073;-60
2023/07/02 10:55:19;;;;;;;37.80;14.85;;;;;;;22.00;64.94;100116.31;8278995;28;20553;-59
2023/07/02 10:59:26;;;;;;;34.13;14.85;;;;;;;22.84;63.83;100109.13;8291828;28;20546;-59
2023/07/02 11:03:27;;;;;;;34.72;14.63;;;;;;;23.50;62.26;100111.06;8295208;28;20034;-59
2023/07/02 11:07:27;;;;;;;32.28;13.48;;;;;;;24.82;61.05;100104.84;8296811;28;20302;-61
2023/07/02 11:11:28;;;;;;;24.25;11.25;;;;;;;25.70;53.41;100118.28;8267562;28;20065;-60
2023/07/02 11:15:35;;;;;;;29.67;13.25;;;;;;;24.21;55.46;100128.50;8271818;28;20037;-59
2023/07/02 11:19:36;;;;;;;35.20;13.65;;;;;;;23.91;56.50;100119.41;8267473;28;20519;-60
2023/07/02 11:23:36;;;;;;;26.80;12.95;;;;;;;23.77;57.09;100126.19;8276534;28;20391;-59
2023/07/02 11:27:37;;;;;;;30.92;12.73;;;;;;;24.12;57.22;100129.91;8286140;28;20038;-59
2023/07/02 11:31:38;;;;;;;31.40;13.00;;;;;;;24.44;55.74;100125.75;8287087;28;20386;-59
2023/07/02 11:35:38;;;;;;;30.92;12.45;;;;;;;23.79;57.12;100126.81;8292819;28;20050;-59
2023/07/02 11:39:38;;;;;;;32.13;12.88;;;;;;;24.82;55.64;100123.34;8289098;28;20139;-59
2023/07/02 11:43:39;;;;;;;32.63;13.25;;;;;;;26.58;52.66;100124.84;8298453;28;20046;-60
2023/07/02 11:47:39;;;;;;;28.92;12.98;;;;;;;25.86;54.44;100128.59;8289056;28;20046;-59
2023/07/02 11:51:46;;;;;;;25.58;12.02;;;;;;;25.21;54.53;100125.31;8272109;28;20041;-59
2023/07/02 11:55:46;;;;;;;24.55;12.23;;;;;;;26.43;54.16;100125.44;8297537;28;20679;-59
2023/07/02 11:59:47;;;;;;;29.47;11.30;;;;;;;25.59;53.05;100127.50;8293431;28;20404;-59
2023/07/02 12:03:47;;;;;;;28.90;13.30;;;;;;;24.89;55.23;100129.59;8295664;28;20315;-60
2023/07/02 12:07:48;;;;;;;25.90;12.20;;;;;;;24.72;55.16;100128.66;8296497;28;20045;-60
2023/07/02 12:11:48;;;;;;;28.38;12.65;;;;;;;25.41;53.98;100131.31;8297513;28;20045;-60
2023/07/02 12:15:51;;;;;;;33.13;13.02;;;;;;;25.73;53.08;100128.88;8296500;28;20045;-60
2023/07/02 12:19:51;;;;;;;24.67;11.65;;;;;;;25.81;52.60;100137.63;8296973;28;20077;-59
2023/07/02 12:23:51;;;;;;;26.50;11.60;;;;;;;25.48;53.30;100129.22;8296510;28;20077;-63
2023/07/02 12:27:53;;;;;;;28.92;12.00;;;;;;;25.33;53.65;100134.47;8303455;28;20038;-62
2023/07/02 12:31:53;;;;;;;27.08;11.70;;;;;;;25.45;53.17;100126.97;8296637;28;20046;-57
2023/07/02 12:35:54;;;;;;;28.17;11.48;;;;;;;25.69;52.19;100131.31;8299577;28;20045;-63
2023/07/02 12:39:54;;;;;;;26.77;11.15;;;;;;;25.52;53.40;100122.09;8299608;28;20046;-63
2023/07/02 12:43:54;;;;;;;25.48;11.48;;;;;;;25.47;52.14;100132.25;8301103;28;20045;-63
2023/07/02 12:47:55;;;;;;;31.43;12.30;;;;;;;25.35;53.81;100131.44;8300343;28;20052;-63
2023/07/02 12:51:55;;;;;;;26.27;11.27;;;;;;;25.30;53.74;100137.69;8300239;28;20828;-63
2023/07/02 12:55:56;;;;;;;27.95;12.13;;;;;;;24.99;53.94;100127.06;8306043;28;20045;-63
2023/07/02 12:59:57;;;;;;;25.60;11.65;;;;;;;24.71;53.17;100135.28;8304918;28;20115;-63
2023/07/02 13:03:57;;;;;;;31.85;12.55;;;;;;;24.30;55.52;100138.09;8308921;28;20052;-63
2023/07/02 13:07:58;;;;;;;26.48;11.45;;;;;;;24.34;57.75;100133.78;8320951;28;20328;-62
2023/07/02 13:11:58;;;;;;;22.08;11.88;;;;;;;24.91;57.74;100139.34;8308689;28;20042;-62
2023/07/02 13:15:59;;;;;;;23.48;11.30;;;;;;;24.79;55.18;100137.66;8304196;28;20045;-62
2023/07/02 13:19:59;;;;;;;25.98;12.30;;;;;;;25.17;55.39;100149.03;8280609;28;20239;-63
2023/07/02 13:24:00;;;;;;;26.25;11.80;;;;;;;24.98;55.58;100142.81;8295643;28;20033;-63
2023/07/02 13:28:00;;;;;;;29.10;11.85;;;;;;;25.64;54.87;100147.81;8289535;28;20048;-62
2023/07/02 13:32:01;;;;;;;23.70;11.50;;;;;;;25.39;52.64;100144.56;8297266;28;20037;-62
2023/07/02 13:36:01;;;;;;;27.77;10.98;;;;;;;25.08;52.52;100141.34;8295492;28;20092;-63
2023/07/02 13:40:03;;;;;;;25.95;11.55;;;;;;;24.38;53.00;100140.50;8301081;28;20419;-63
2023/07/02 13:44:04;;;;;;;27.65;10.80;;;;;;;24.75;55.14;100142.00;8300537;28;20411;-63
2023/07/02 13:48:05;;;;;;;26.30;11.40;;;;;;;25.26;55.70;100139.28;8306084;28;20073;-63
2023/07/02 13:52:05;;;;;;;24.98;11.35;;;;;;;25.30;52.88;100136.84;8297437;28;20044;-63
2023/07/02 13:56:06;;;;;;;29.17;12.30;;;;;;;25.64;53.76;100147.81;8303731;28;20131;-63
2023/07/02 14:00:07;;;;;;;28.33;11.68;;;;;;;25.09;51.80;100143.06;8299253;28;20041;-64
2023/07/02 14:04:10;;;;;;;22.13;11.38;;;;;;;25.05;52.94;100137.16;8299718;28;20053;-63
2023/07/02 14:08:10;;;;;;;20.15;10.95;;;;;;;24.82;51.82;100143.56;8292028;28;20041;-64
2023/07/02 14:12:12;;;;;;;23.98;10.45;;;;;;;24.87;52.91;100140.91;8305622;28;20045;-64
2023/07/02 14:16:13;;;;;;;22.65;10.60;;;;;;;24.79;53.95;100132.13;8291538;28;20176;-64
2023/07/02 14:20:13;;;;;;;27.13;11.48;;;;;;;24.95;52.98;100134.16;8302922;28;20411;-63
2023/07/02 14:24:14;;;;;;;20.77;10.57;;;;;;;24.76;54.10;100140.91;8306215;28;20060;-63
2023/07/02 14:28:15;;;;;;;23.35;10.05;;;;;;;24.60;52.21;100128.63;8302565;28;20045;-63
2023/07/02 14:32:16;;;;;;;27.23;10.57;;;;;;;24.59;53.71;100123.34;8296077;28;20133;-64
2023/07/02 14:36:16;;;;;;;25.20;11.05;;;;;;;24.68;52.94;100124.69;8305857;28;20289;-64
2023/07/02 14:40:17;;;;;;;22.38;9.95;;;;;;;24.53;52.48;100132.59;8302640;28;20132;-63
2023/07/02 14:44:17;;;;;;;21.58;11.18;;;;;;;24.75;52.32;100126.25;8305146;28;20046;-64
2023/07/02 14:48:18;;;;;;;22.98;10.15;;;;;;;24.54;52.85;100128.75;8298835;28;20061;-63
2023/07/02 14:52:19;;;;;;;23.48;10.68;;;;;;;24.51;54.62;100130.06;8304126;28;20026;-64
2023/07/02 14:56:19;;;;;;;27.60;11.15;;;;;;;24.65;53.19;100125.19;8306538;28;20044;-64
2023/07/02 15:00:20;;;;;;;25.88;11.63;;;;;;;24.61;53.55;100121.19;8289265;28;20042;-64
2023/07/02 15:04:20;;;;;;;23.30;11.02;;;;;;;24.40;55.02;100122.59;8306165;28;20060;-63
2023/07/02 15:08:21;;;;;;;30.33;12.52;;;;;;;24.51;55.70;100118.16;8301062;28;20107;-64
2023/07/02 15:12:22;;;;;;;22.65;11.93;;;;;;;24.37;55.39;100116.72;8301042;28;20049;-61
2023/07/02 15:16:22;;;;;;;27.75;12.00;;;;;;;24.41;55.15;100109.63;8302789;28;20121;-61
2023/07/02 15:20:24;;;;;;;25.90;11.77;;;;;;;24.31;56.83;100107.47;8296248;28;20145;-61
2023/07/02 15:24:24;;;;;;;27.05;12.07;;;;;;;24.23;56.16;100109.75;8303031;28;20107;-64
2023/07/02 15:28:26;;;;;;;31.10;11.65;;;;;;;24.32;57.32;100117.44;8298956;28;20045;-64
2023/07/02 15:32:26;;;;;;;34.25;12.40;;;;;;;24.34;56.71;100106.97;8296263;28;20511;-64
2023/07/02 15:36:27;;;;;;;28.90;12.75;;;;;;;24.06;56.43;100098.53;8300550;28;20408;-63
2023/07/02 15:40:28;;;;;;;24.20;12.13;;;;;;;24.03;57.65;100100.97;8302254;28;20034;-63
2023/07/02 15:44:28;;;;;;;26.45;12.35;;;;;;;24.10;57.20;100107.22;8300864;28;20041;-64
2023/07/02 15:48:29;;;;;;;30.52;12.35;;;;;;;24.50;58.48;100102.66;8304307;28;20037;-63
2023/07/02 15:52:29;;;;;;;29.23;11.88;;;;;;;24.33;57.60;100099.78;8301316;28;20045;-63
2023/07/02 15:56:32;;;;;;;31.98;12.02;;;;;;;24.12;57.78;100097.59;8303220;28;20037;-64
2023/07/02 16:00:32;;;;;;;30.40;12.45;;;;;;;24.07;59.51;100093.88;8290168;28;20081;-63
2023/07/02 16:04:33;;;;;;;30.48;12.43;;;;;;;24.36;57.44;100103.97;8303530;28;20121;-64
2023/07/02 16:08:34;;;;;;;29.35;12.00;;;;;;;24.35;58.62;100100.38;8296904;28;20061;-64
2023/07/02 16:12:34;;;;;;;26.45;12.10;;;;;;;24.31;58.46;100104.69;8300051;28;20411;-63
2023/07/02 16:16:39;;;;;;;26.25;11.70;;;;;;;23.99;58.12;100099.72;8299276;28;20097;-64
2023/07/02 16:20:40;;;;;;;29.15;12.25;;;;;;;24.00;59.06;100099.50;8296893;28;20056;-64
2023/07/02 16:24:40;;;;;;;31.38;12.48;;;;;;;24.24;59.08;100095.69;8293245;28;20046;-64
2023/07/02 16:28:41;;;;;;;26.50;11.68;;;;;;;24.28;58.47;100099.66;8300956;28;20152;-64
2023/07/02 16:32:41;;;;;;;29.02;11.82;;;;;;;23.96;58.90;100092.78;8296221;28;20041;-64
2023/07/02 16:36:44;;;;;;;28.33;11.38;;;;;;;23.78;60.18;100092.00;8298668;28;20037;-64
2023/07/02 16:40:47;;;;;;;25.77;11.47;;;;;;;24.09;58.62;100086.19;8302541;28;20053;-64
2023/07/02 16:44:47;;;;;;;26.48;10.50;;;;;;;23.99;59.16;100085.91;8302238;28;20075;-64
2023/07/02 16:48:48;;;;;;;25.50;10.25;;;;;;;23.65;59.54;100087.50;8303136;28;20346;-63
2023/07/02 16:52:48;;;;;;;26.77;10.90;;;;;;;23.48;60.09;100082.88;8303443;28;20543;-64
2023/07/02 16:56:52;;;;;;;26.73;10.55;;;;;;;23.48;60.60;100077.38;8298995;28;20285;-64
2023/07/02 17:00:59;;;;;;;40.57;12.07;;;;;;;23.47;60.18;100081.19;8298120;28;20042;-64
2023/07/02 17:04:59;;;;;;;30.88;11.35;;;;;;;23.41;59.92;100082.13;8300031;28;20250;-63
2023/07/02 17:09:25;;;;;;;29.63;11.93;;;;;;;23.38;61.13;100085.34;8302024;28;20045;-64
2023/07/02 17:13:25;;;;;;;29.48;10.95;;;;;;;23.48;60.32;100088.41;8303562;28;20628;-64
2023/07/02 17:17:28;;;;;;;27.85;11.50;;;;;;;23.60;59.49;100073.56;8301833;28;20041;-64
2023/07/02 17:21:28;;;;;;;29.85;10.77;;;;;;;23.57;59.96;100075.97;8302107;28;20331;-63
2023/07/02 17:25:30;;;;;;;26.50;10.13;;;;;;;23.36;60.29;100068.22;8302965;28;20322;-63
2023/07/02 17:29:31;;;;;;;30.55;11.65;;;;;;;23.17;62.31;100065.44;8299643;28;20057;-64
2023/07/02 17:33:31;;;;;;;26.75;10.80;;;;;;;23.12;61.68;100076.31;8296896;28;20038;-64
2023/07/02 17:37:32;;;;;;;28.65;11.23;;;;;;;23.19;62.15;100068.84;8303239;28;20029;-64
2023/07/02 17:41:32;;;;;;;27.10;11.13;;;;;;;23.19;61.68;100066.06;8298067;28;20471;-64
2023/07/02 17:45:33;;;;;;;26.03;10.40;;;;;;;23.30;61.57;100063.63;8309057;28;20088;-64
2023/07/02 17:49:37;;;;;;;28.45;10.98;;;;;;;23.31;61.88;100065.28;8307823;28;20276;-64
2023/07/02 17:53:38;;;;;;;30.95;10.10;;;;;;;23.30;61.74;100063.63;8308456;28;20045;-64
2023/07/02 17:57:38;;;;;;;27.13;11.02;;;;;;;23.33;61.85;100068.66;8294884;28;20058;-64
2023/07/02 18:01:41;;;;;;;23.67;10.25;;;;;;;23.27;62.30;100056.66;8276032;28;20053;-64
2023/07/02 18:05:42;;;;;;;29.10;10.63;;;;;;;23.23;63.56;100062.84;8311567;28;20088;-64
2023/07/02 18:09:46;;;;;;;24.15;10.80;;;;;;;23.28;62.47;100057.47;8297745;28;20038;-64
2023/07/02 18:13:46;;;;;;;;;;;;;;;23.31;62.25;100065.28;8296562;28;20136;-64
2023/07/02 18:17:47;;;;;;;29.23;10.83;;;;;;;23.25;62.52;100060.72;8297752;28;19929;-64
2023/07/02 18:21:47;;;;;;;26.83;9.88;;;;;;;23.24;62.73;100054.38;8296147;28;20037;-64
2023/07/02 18:25:53;;;;;;;22.70;9.15;;;;;;;23.05;63.69;100053.53;8296246;28;20519;-64